sensor_id;sensor_type;location;lat;lon;timestamp;temperature;humidity
66594;DHT22;53450;42.584;23.366;2022-10-16T00:00:09;6.31;82.74
66594;DHT22;53450;42.584;23.366;2022-10-16T00:02:35;6.38;82.73
66594;DHT22;53450;42.584;23.366;2022-10-16T00:05:01;6.39;82.42
66594;DHT22;53450;42.584;23.366;2022-10-16T00:07:27;6.45;81.54
66594;DHT22;53450;42.584;23.366;2022-10-16T00:09:56;6.41;81.53
66594;DHT22;53450;42.584;23.366;2022-10-16T00:12:22;6.31;82.04
66594;DHT22;53450;42.584;23.366;2022-10-16T00:14:48;6.25;82.16
66594;DHT22;53450;42.584;23.366;2022-10-16T00:17:17;6.17;82.40
66594;DHT22;53450;42.584;23.366;2022-10-16T00:19:46;6.02;82.94
66594;DHT22;53450;42.584;23.366;2022-10-16T00:22:18;5.98;83.01
66594;DHT22;53450;42.584;23.366;2022-10-16T00:24:48;5.93;83.10
66594;DHT22;53450;42.584;23.366;2022-10-16T00:27:16;5.90;83.23
66594;DHT22;53450;42.584;23.366;2022-10-16T00:29:52;5.80;83.45
66594;DHT22;53450;42.584;23.366;2022-10-16T00:32:24;5.90;82.74
66594;DHT22;53450;42.584;23.366;2022-10-16T00:34:52;5.90;82.59
66594;DHT22;53450;42.584;23.366;2022-10-16T00:37:20;5.78;82.96
66594;DHT22;53450;42.584;23.366;2022-10-16T00:39:50;5.70;83.30
66594;DHT22;53450;42.584;23.366;2022-10-16T00:42:24;5.70;83.37
66594;DHT22;53450;42.584;23.366;2022-10-16T00:44:58;5.71;83.15
66594;DHT22;53450;42.584;23.366;2022-10-16T00:48:00;5.70;83.05
66594;DHT22;53450;42.584;23.366;2022-10-16T00:50:32;5.64;83.51
66594;DHT22;53450;42.584;23.366;2022-10-16T00:53:00;5.59;83.57
66594;DHT22;53450;42.584;23.366;2022-10-16T00:55:58;5.59;83.49
66594;DHT22;53450;42.584;23.366;2022-10-16T00:58:55;5.59;83.40
66594;DHT22;53450;42.584;23.366;2022-10-16T01:01:28;5.54;83.78
66594;DHT22;53450;42.584;23.366;2022-10-16T01:04:20;5.46;83.93
66594;DHT22;53450;42.584;23.366;2022-10-16T01:09:55;5.43;84.20
66594;DHT22;53450;42.584;23.366;2022-10-16T01:13:05;5.44;84.25
66594;DHT22;53450;42.584;23.366;2022-10-16T01:15:56;5.42;84.40
66594;DHT22;53450;42.584;23.366;2022-10-16T01:18:33;5.40;84.31
66594;DHT22;53450;42.584;23.366;2022-10-16T01:21:08;5.40;84.26
66594;DHT22;53450;42.584;23.366;2022-10-16T01:30:01;5.29;84.11
66594;DHT22;53450;42.584;23.366;2022-10-16T01:32:40;5.25;84.08
66594;DHT22;53450;42.584;23.366;2022-10-16T01:35:25;5.18;84.30
66594;DHT22;53450;42.584;23.366;2022-10-16T01:38:05;5.21;84.41
66594;DHT22;53450;42.584;23.366;2022-10-16T01:40:38;5.18;84.50
66594;DHT22;53450;42.584;23.366;2022-10-16T01:43:09;5.18;84.42
66594;DHT22;53450;42.584;23.366;2022-10-16T01:45:36;5.18;84.42
66594;DHT22;53450;42.584;23.366;2022-10-16T01:48:05;5.15;84.46
66594;DHT22;53450;42.584;23.366;2022-10-16T01:50:37;5.11;84.69
66594;DHT22;53450;42.584;23.366;2022-10-16T01:53:07;5.07;84.87
66594;DHT22;53450;42.584;23.366;2022-10-16T01:55:45;5.08;85.00
66594;DHT22;53450;42.584;23.366;2022-10-16T01:58:13;5.11;84.91
66594;DHT22;53450;42.584;23.366;2022-10-16T02:00:42;5.15;84.68
66594;DHT22;53450;42.584;23.366;2022-10-16T02:03:11;5.13;84.56
66594;DHT22;53450;42.584;23.366;2022-10-16T02:05:45;5.12;84.64
66594;DHT22;53450;42.584;23.366;2022-10-16T02:08:14;5.07;84.77
66594;DHT22;53450;42.584;23.366;2022-10-16T02:10:41;5.08;84.84
66594;DHT22;53450;42.584;23.366;2022-10-16T02:13:38;5.09;84.61
66594;DHT22;53450;42.584;23.366;2022-10-16T02:16:41;5.07;84.54
66594;DHT22;53450;42.584;23.366;2022-10-16T02:19:14;5.07;84.69
66594;DHT22;53450;42.584;23.366;2022-10-16T02:24:47;5.02;84.46
66594;DHT22;53450;42.584;23.366;2022-10-16T02:30:06;5.09;84.62
66594;DHT22;53450;42.584;23.366;2022-10-16T02:32:44;5.09;84.76
66594;DHT22;53450;42.584;23.366;2022-10-16T02:35:16;5.05;84.84
66594;DHT22;53450;42.584;23.366;2022-10-16T02:37:47;5.05;84.91
66594;DHT22;53450;42.584;23.366;2022-10-16T02:40:22;5.07;85.17
66594;DHT22;53450;42.584;23.366;2022-10-16T02:42:54;5.04;85.40
66594;DHT22;53450;42.584;23.366;2022-10-16T02:45:23;5.08;85.38
66594;DHT22;53450;42.584;23.366;2022-10-16T02:47:50;5.04;85.53
66594;DHT22;53450;42.584;23.366;2022-10-16T02:50:16;5.08;85.51
66594;DHT22;53450;42.584;23.366;2022-10-16T02:52:42;5.09;85.33
66594;DHT22;53450;42.584;23.366;2022-10-16T02:55:08;5.02;85.24
66594;DHT22;53450;42.584;23.366;2022-10-16T02:57:34;5.01;85.33
66594;DHT22;53450;42.584;23.366;2022-10-16T03:00:07;5.01;85.40
66594;DHT22;53450;42.584;23.366;2022-10-16T03:02:34;5.02;85.30
66594;DHT22;53450;42.584;23.366;2022-10-16T03:05:00;5.02;85.04
66594;DHT22;53450;42.584;23.366;2022-10-16T03:07:26;4.99;85.28
66594;DHT22;53450;42.584;23.366;2022-10-16T03:09:55;4.99;85.40
66594;DHT22;53450;42.584;23.366;2022-10-16T03:12:58;4.99;85.37
66594;DHT22;53450;42.584;23.366;2022-10-16T03:15:30;4.98;85.42
66594;DHT22;53450;42.584;23.366;2022-10-16T03:18:00;4.96;85.47
66594;DHT22;53450;42.584;23.366;2022-10-16T03:21:01;4.98;85.49
66594;DHT22;53450;42.584;23.366;2022-10-16T03:23:38;4.99;85.54
66594;DHT22;53450;42.584;23.366;2022-10-16T03:26:16;4.96;85.40
66594;DHT22;53450;42.584;23.366;2022-10-16T03:29:09;4.95;85.34
66594;DHT22;53450;42.584;23.366;2022-10-16T03:31:35;4.98;85.31
66594;DHT22;53450;42.584;23.366;2022-10-16T03:34:07;4.96;85.46
66594;DHT22;53450;42.584;23.366;2022-10-16T03:36:41;5.02;85.38
66594;DHT22;53450;42.584;23.366;2022-10-16T03:39:16;5.01;85.34
66594;DHT22;53450;42.584;23.366;2022-10-16T03:41:45;5.05;85.47
66594;DHT22;53450;42.584;23.366;2022-10-16T03:44:17;5.13;84.77
66594;DHT22;53450;42.584;23.366;2022-10-16T03:46:49;5.07;84.98
66594;DHT22;53450;42.584;23.366;2022-10-16T03:49:24;5.04;84.99
66594;DHT22;53450;42.584;23.366;2022-10-16T03:52:23;4.99;85.21
66594;DHT22;53450;42.584;23.366;2022-10-16T03:54:58;4.95;85.19
66594;DHT22;53450;42.584;23.366;2022-10-16T03:57:49;4.91;85.25
66594;DHT22;53450;42.584;23.366;2022-10-16T04:00:50;4.92;85.49
66594;DHT22;53450;42.584;23.366;2022-10-16T04:03:31;4.87;85.82
66594;DHT22;53450;42.584;23.366;2022-10-16T04:06:06;4.87;85.89
66594;DHT22;53450;42.584;23.366;2022-10-16T04:08:38;4.92;85.38
66594;DHT22;53450;42.584;23.366;2022-10-16T04:11:05;4.92;85.64
66594;DHT22;53450;42.584;23.366;2022-10-16T04:13:31;4.96;85.62
66594;DHT22;53450;42.584;23.366;2022-10-16T04:15:57;4.99;84.62
66594;DHT22;53450;42.584;23.366;2022-10-16T04:18:23;5.01;84.18
66594;DHT22;53450;42.584;23.366;2022-10-16T04:20:53;5.01;84.22
66594;DHT22;53450;42.584;23.366;2022-10-16T04:23:20;4.98;84.05
66594;DHT22;53450;42.584;23.366;2022-10-16T04:25:54;4.92;84.26
66594;DHT22;53450;42.584;23.366;2022-10-16T04:28:24;4.85;84.44
66594;DHT22;53450;42.584;23.366;2022-10-16T04:30:50;4.78;84.97
66594;DHT22;53450;42.584;23.366;2022-10-16T04:33:22;4.73;85.22
66594;DHT22;53450;42.584;23.366;2022-10-16T04:35:48;4.61;85.45
66594;DHT22;53450;42.584;23.366;2022-10-16T04:38:14;4.61;85.51
66594;DHT22;53450;42.584;23.366;2022-10-16T04:40:43;4.73;84.98
66594;DHT22;53450;42.584;23.366;2022-10-16T04:43:10;4.74;85.13
66594;DHT22;53450;42.584;23.366;2022-10-16T04:45:36;4.77;84.98
66594;DHT22;53450;42.584;23.366;2022-10-16T04:48:02;4.78;84.92
66594;DHT22;53450;42.584;23.366;2022-10-16T04:50:28;4.74;85.34
66594;DHT22;53450;42.584;23.366;2022-10-16T04:53:05;4.77;85.50
66594;DHT22;53450;42.584;23.366;2022-10-16T04:55:36;4.71;85.62
66594;DHT22;53450;42.584;23.366;2022-10-16T04:58:07;4.73;85.61
66594;DHT22;53450;42.584;23.366;2022-10-16T05:00:34;4.50;85.72
66594;DHT22;53450;42.584;23.366;2022-10-16T05:03:00;4.70;85.83
66594;DHT22;53450;42.584;23.366;2022-10-16T05:05:27;4.83;85.52
66594;DHT22;53450;42.584;23.366;2022-10-16T05:07:53;4.89;85.36
66594;DHT22;53450;42.584;23.366;2022-10-16T05:10:26;4.98;85.49
66594;DHT22;53450;42.584;23.366;2022-10-16T05:12:54;5.05;85.49
66594;DHT22;53450;42.584;23.366;2022-10-16T05:15:20;5.01;85.38
66594;DHT22;53450;42.584;23.366;2022-10-16T05:17:46;5.13;85.05
66594;DHT22;53450;42.584;23.366;2022-10-16T05:20:12;5.25;84.86
66594;DHT22;53450;42.584;23.366;2022-10-16T05:22:47;5.28;84.89
66594;DHT22;53450;42.584;23.366;2022-10-16T05:25:31;5.43;85.04
66594;DHT22;53450;42.584;23.366;2022-10-16T05:28:00;5.54;84.31
66594;DHT22;53450;42.584;23.366;2022-10-16T05:30:29;5.62;84.27
66594;DHT22;53450;42.584;23.366;2022-10-16T05:33:01;5.64;84.58
66594;DHT22;53450;42.584;23.366;2022-10-16T05:35:27;5.67;84.81
66594;DHT22;53450;42.584;23.366;2022-10-16T05:37:53;5.89;84.57
66594;DHT22;53450;42.584;23.366;2022-10-16T05:40:19;6.05;83.82
66594;DHT22;53450;42.584;23.366;2022-10-16T05:42:48;6.15;83.72
66594;DHT22;53450;42.584;23.366;2022-10-16T05:45:14;6.25;82.95
66594;DHT22;53450;42.584;23.366;2022-10-16T05:47:40;6.31;82.95
66594;DHT22;53450;42.584;23.366;2022-10-16T05:50:07;6.35;83.16
66594;DHT22;53450;42.584;23.366;2022-10-16T05:52:33;6.46;83.28
66594;DHT22;53450;42.584;23.366;2022-10-16T05:54:59;6.59;83.11
66594;DHT22;53450;42.584;23.366;2022-10-16T05:57:34;6.66;83.34
66594;DHT22;53450;42.584;23.366;2022-10-16T06:00:10;6.77;83.17
66594;DHT22;53450;42.584;23.366;2022-10-16T06:02:43;6.87;83.41
66594;DHT22;53450;42.584;23.366;2022-10-16T06:05:09;7.12;82.53
66594;DHT22;53450;42.584;23.366;2022-10-16T06:07:35;7.24;82.47
66594;DHT22;53450;42.584;23.366;2022-10-16T06:10:02;7.41;82.29
66594;DHT22;53450;42.584;23.366;2022-10-16T06:12:28;7.63;80.83
66594;DHT22;53450;42.584;23.366;2022-10-16T06:14:54;7.75;80.56
66594;DHT22;53450;42.584;23.366;2022-10-16T06:17:20;7.85;80.09
66594;DHT22;53450;42.584;23.366;2022-10-16T06:20:22;7.97;79.00
66594;DHT22;53450;42.584;23.366;2022-10-16T06:23:00;8.06;78.51
66594;DHT22;53450;42.584;23.366;2022-10-16T06:25:36;8.09;78.34
66594;DHT22;53450;42.584;23.366;2022-10-16T06:28:37;8.28;78.24
66594;DHT22;53450;42.584;23.366;2022-10-16T06:31:30;8.31;78.09
66594;DHT22;53450;42.584;23.366;2022-10-16T06:33:59;8.54;77.92
66594;DHT22;53450;42.584;23.366;2022-10-16T06:36:29;8.78;76.67
66594;DHT22;53450;42.584;23.366;2022-10-16T06:38:56;8.88;76.19
66594;DHT22;53450;42.584;23.366;2022-10-16T06:41:25;9.03;76.43
66594;DHT22;53450;42.584;23.366;2022-10-16T06:43:52;9.16;76.07
66594;DHT22;53450;42.584;23.366;2022-10-16T06:46:21;9.27;75.35
66594;DHT22;53450;42.584;23.366;2022-10-16T06:49:30;9.28;75.33
66594;DHT22;53450;42.584;23.366;2022-10-16T06:52:21;9.50;74.61
66594;DHT22;53450;42.584;23.366;2022-10-16T06:54:46;9.64;73.83
66594;DHT22;53450;42.584;23.366;2022-10-16T06:57:12;9.78;73.51
66594;DHT22;53450;42.584;23.366;2022-10-16T06:59:41;9.84;73.49
66594;DHT22;53450;42.584;23.366;2022-10-16T07:02:09;9.88;73.99
66594;DHT22;53450;42.584;23.366;2022-10-16T07:04:38;9.99;72.55
66594;DHT22;53450;42.584;23.366;2022-10-16T07:07:08;9.98;72.41
66594;DHT22;53450;42.584;23.366;2022-10-16T07:09:34;9.95;73.21
66594;DHT22;53450;42.584;23.366;2022-10-16T07:12:00;10.08;73.03
66594;DHT22;53450;42.584;23.366;2022-10-16T07:14:26;10.06;72.07
66594;DHT22;53450;42.584;23.366;2022-10-16T07:16:55;10.16;70.57
66594;DHT22;53450;42.584;23.366;2022-10-16T07:19:25;10.42;70.65
66594;DHT22;53450;42.584;23.366;2022-10-16T07:21:57;10.75;67.10
66594;DHT22;53450;42.584;23.366;2022-10-16T07:24:38;10.73;67.54
66594;DHT22;53450;42.584;23.366;2022-10-16T07:27:06;10.59;67.61
66594;DHT22;53450;42.584;23.366;2022-10-16T07:29:35;10.78;66.80
66594;DHT22;53450;42.584;23.366;2022-10-16T07:32:12;10.80;65.30
66594;DHT22;53450;42.584;23.366;2022-10-16T07:34:46;10.83;66.01
66594;DHT22;53450;42.584;23.366;2022-10-16T07:37:14;10.95;66.46
66594;DHT22;53450;42.584;23.366;2022-10-16T07:39:40;11.10;66.59
66594;DHT22;53450;42.584;23.366;2022-10-16T07:42:09;11.15;66.59
66594;DHT22;53450;42.584;23.366;2022-10-16T07:44:38;11.25;64.79
66594;DHT22;53450;42.584;23.366;2022-10-16T07:47:05;11.25;65.01
66594;DHT22;53450;42.584;23.366;2022-10-16T07:49:32;11.36;66.01
66594;DHT22;53450;42.584;23.366;2022-10-16T07:51:58;11.56;66.41
66594;DHT22;53450;42.584;23.366;2022-10-16T07:54:51;11.70;64.03
66594;DHT22;53450;42.584;23.366;2022-10-16T08:00:24;11.87;62.78
66594;DHT22;53450;42.584;23.366;2022-10-16T08:02:53;11.80;55.13
66594;DHT22;53450;42.584;23.366;2022-10-16T08:05:19;11.55;56.72
66594;DHT22;53450;42.584;23.366;2022-10-16T08:07:57;11.62;56.56
66594;DHT22;53450;42.584;23.366;2022-10-16T08:10:26;11.76;57.32
66594;DHT22;53450;42.584;23.366;2022-10-16T08:12:53;11.77;57.22
66594;DHT22;53450;42.584;23.366;2022-10-16T08:15:45;11.77;63.17
66594;DHT22;53450;42.584;23.366;2022-10-16T08:18:15;11.70;62.15
66594;DHT22;53450;42.584;23.366;2022-10-16T08:20:42;11.73;59.36
66594;DHT22;53450;42.584;23.366;2022-10-16T08:23:13;11.80;59.04
66594;DHT22;53450;42.584;23.366;2022-10-16T08:25:40;11.89;57.61
66594;DHT22;53450;42.584;23.366;2022-10-16T08:28:07;11.97;57.37
66594;DHT22;53450;42.584;23.366;2022-10-16T08:30:36;12.01;56.79
66594;DHT22;53450;42.584;23.366;2022-10-16T08:33:02;11.95;56.83
66594;DHT22;53450;42.584;23.366;2022-10-16T08:35:28;12.01;57.33
66594;DHT22;53450;42.584;23.366;2022-10-16T08:37:57;11.98;55.36
66594;DHT22;53450;42.584;23.366;2022-10-16T08:40:30;11.94;56.82
66594;DHT22;53450;42.584;23.366;2022-10-16T08:43:32;11.79;60.02
66594;DHT22;53450;42.584;23.366;2022-10-16T08:46:39;11.77;59.16
66594;DHT22;53450;42.584;23.366;2022-10-16T08:49:11;12.00;58.49
66594;DHT22;53450;42.584;23.366;2022-10-16T08:51:41;12.05;60.33
66594;DHT22;53450;42.584;23.366;2022-10-16T08:54:31;12.16;58.81
66594;DHT22;53450;42.584;23.366;2022-10-16T08:57:19;12.28;58.84
66594;DHT22;53450;42.584;23.366;2022-10-16T08:59:48;12.17;59.01
66594;DHT22;53450;42.584;23.366;2022-10-16T09:02:28;12.28;58.00
66594;DHT22;53450;42.584;23.366;2022-10-16T09:05:00;12.27;57.78
66594;DHT22;53450;42.584;23.366;2022-10-16T09:13:00;12.49;59.28
66594;DHT22;53450;42.584;23.366;2022-10-16T09:15:52;12.63;59.89
66594;DHT22;53450;42.584;23.366;2022-10-16T09:18:41;12.56;59.97
66594;DHT22;53450;42.584;23.366;2022-10-16T09:21:19;12.58;59.33
66594;DHT22;53450;42.584;23.366;2022-10-16T09:23:47;12.68;59.83
66594;DHT22;53450;42.584;23.366;2022-10-16T09:26:14;12.86;59.33
66594;DHT22;53450;42.584;23.366;2022-10-16T09:28:41;12.88;59.55
66594;DHT22;53450;42.584;23.366;2022-10-16T09:31:22;12.78;59.44
66594;DHT22;53450;42.584;23.366;2022-10-16T09:33:54;12.97;57.98
66594;DHT22;53450;42.584;23.366;2022-10-16T09:36:21;13.02;57.00
66594;DHT22;53450;42.584;23.366;2022-10-16T09:38:48;13.07;58.99
66594;DHT22;53450;42.584;23.366;2022-10-16T09:41:20;12.89;58.53
66594;DHT22;53450;42.584;23.366;2022-10-16T09:47:18;13.02;57.32
66594;DHT22;53450;42.584;23.366;2022-10-16T09:49:55;13.09;56.68
66594;DHT22;53450;42.584;23.366;2022-10-16T09:52:23;13.17;56.09
66594;DHT22;53450;42.584;23.366;2022-10-16T09:54:59;13.41;55.62
66594;DHT22;53450;42.584;23.366;2022-10-16T09:57:26;13.58;55.46
66594;DHT22;53450;42.584;23.366;2022-10-16T09:59:54;13.67;54.08
66594;DHT22;53450;42.584;23.366;2022-10-16T10:02:33;13.64;52.87
66594;DHT22;53450;42.584;23.366;2022-10-16T10:04:59;13.79;52.71
66594;DHT22;53450;42.584;23.366;2022-10-16T10:07:27;14.09;53.73
66594;DHT22;53450;42.584;23.366;2022-10-16T10:10:27;14.18;52.92
66594;DHT22;53450;42.584;23.366;2022-10-16T10:12:54;14.39;50.83
66594;DHT22;53450;42.584;23.366;2022-10-16T10:15:21;14.50;51.97
66594;DHT22;53450;42.584;23.366;2022-10-16T10:17:57;14.48;50.27
66594;DHT22;53450;42.584;23.366;2022-10-16T10:20:31;14.60;49.97
66594;DHT22;53450;42.584;23.366;2022-10-16T10:23:00;14.68;48.73
66594;DHT22;53450;42.584;23.366;2022-10-16T10:37:02;15.02;47.11
66594;DHT22;53450;42.584;23.366;2022-10-16T10:39:39;15.09;47.10
66594;DHT22;53450;42.584;23.366;2022-10-16T10:42:25;15.24;46.85
66594;DHT22;53450;42.584;23.366;2022-10-16T10:51:04;15.79;45.48
66594;DHT22;53450;42.584;23.366;2022-10-16T10:59:24;15.71;46.40
66594;DHT22;53450;42.584;23.366;2022-10-16T11:02:00;15.80;46.29
66594;DHT22;53450;42.584;23.366;2022-10-16T11:06:59;15.64;46.94
66594;DHT22;53450;42.584;23.366;2022-10-16T11:09:40;15.63;47.28
66594;DHT22;53450;42.584;23.366;2022-10-16T11:12:14;15.74;46.40
66594;DHT22;53450;42.584;23.366;2022-10-16T11:17:49;15.82;44.08
66594;DHT22;53450;42.584;23.366;2022-10-16T11:20:24;15.98;45.05
66594;DHT22;53450;42.584;23.366;2022-10-16T11:23:21;15.91;44.90
66594;DHT22;53450;42.584;23.366;2022-10-16T11:25:48;15.90;44.64
66594;DHT22;53450;42.584;23.366;2022-10-16T11:28:23;15.82;46.08
66594;DHT22;53450;42.584;23.366;2022-10-16T11:31:02;16.00;44.66
66594;DHT22;53450;42.584;23.366;2022-10-16T11:33:41;15.84;45.74
66594;DHT22;53450;42.584;23.366;2022-10-16T11:36:25;16.05;44.31
66594;DHT22;53450;42.584;23.366;2022-10-16T11:39:00;16.13;44.30
66594;DHT22;53450;42.584;23.366;2022-10-16T11:49:32;16.08;43.43
66594;DHT22;53450;42.584;23.366;2022-10-16T11:52:19;16.04;42.71
66594;DHT22;53450;42.584;23.366;2022-10-16T11:55:19;15.84;42.74
66594;DHT22;53450;42.584;23.366;2022-10-16T11:57:54;16.07;42.68
66594;DHT22;53450;42.584;23.366;2022-10-16T12:08:51;16.14;40.17
66594;DHT22;53450;42.584;23.366;2022-10-16T12:11:38;16.15;40.47
66594;DHT22;53450;42.584;23.366;2022-10-16T12:17:37;15.98;40.74
66594;DHT22;53450;42.584;23.366;2022-10-16T12:22:52;15.90;40.65
66594;DHT22;53450;42.584;23.366;2022-10-16T12:25:53;15.97;39.95
66594;DHT22;53450;42.584;23.366;2022-10-16T12:28:21;15.96;40.18
66594;DHT22;53450;42.584;23.366;2022-10-16T12:30:56;15.84;40.82
66594;DHT22;53450;42.584;23.366;2022-10-16T12:33:56;15.89;39.39
66594;DHT22;53450;42.584;23.366;2022-10-16T12:36:32;16.05;40.37
66594;DHT22;53450;42.584;23.366;2022-10-16T12:38:59;16.08;40.03
66594;DHT22;53450;42.584;23.366;2022-10-16T12:43:53;16.10;39.14
66594;DHT22;53450;42.584;23.366;2022-10-16T12:46:21;16.11;37.15
66594;DHT22;53450;42.584;23.366;2022-10-16T12:48:47;16.14;39.04
66594;DHT22;53450;42.584;23.366;2022-10-16T12:51:38;16.14;39.89
66594;DHT22;53450;42.584;23.366;2022-10-16T13:04:34;16.05;39.15
66594;DHT22;53450;42.584;23.366;2022-10-16T13:09:40;15.97;40.17
66594;DHT22;53450;42.584;23.366;2022-10-16T13:26:09;16.13;39.12
66594;DHT22;53450;42.584;23.366;2022-10-16T13:28:37;16.01;40.19
66594;DHT22;53450;42.584;23.366;2022-10-16T13:31:21;15.83;40.57
66594;DHT22;53450;42.584;23.366;2022-10-16T13:33:54;15.90;40.82
66594;DHT22;53450;42.584;23.366;2022-10-16T13:36:22;16.00;40.34
66594;DHT22;53450;42.584;23.366;2022-10-16T13:41:36;15.98;40.20
66594;DHT22;53450;42.584;23.366;2022-10-16T13:44:02;16.03;40.49
66594;DHT22;53450;42.584;23.366;2022-10-16T13:46:28;16.07;40.11
66594;DHT22;53450;42.584;23.366;2022-10-16T13:49:10;15.96;38.56
66594;DHT22;53450;42.584;23.366;2022-10-16T13:51:36;15.86;39.08
66594;DHT22;53450;42.584;23.366;2022-10-16T13:54:02;15.90;39.00
66594;DHT22;53450;42.584;23.366;2022-10-16T13:56:30;15.86;39.18
66594;DHT22;53450;42.584;23.366;2022-10-16T14:01:27;15.89;41.47
66594;DHT22;53450;42.584;23.366;2022-10-16T14:04:01;15.89;41.82
66594;DHT22;53450;42.584;23.366;2022-10-16T14:06:27;15.89;41.44
66594;DHT22;53450;42.584;23.366;2022-10-16T14:09:05;15.84;41.14
66594;DHT22;53450;42.584;23.366;2022-10-16T14:11:32;15.87;41.55
66594;DHT22;53450;42.584;23.366;2022-10-16T14:14:12;15.90;40.85
66594;DHT22;53450;42.584;23.366;2022-10-16T14:16:40;15.76;41.54
66594;DHT22;53450;42.584;23.366;2022-10-16T14:19:18;15.64;41.20
66594;DHT22;53450;42.584;23.366;2022-10-16T14:21:44;15.56;42.12
66594;DHT22;53450;42.584;23.366;2022-10-16T14:24:34;15.66;42.34
66594;DHT22;53450;42.584;23.366;2022-10-16T14:27:01;15.57;42.77
66594;DHT22;53450;42.584;23.366;2022-10-16T14:29:29;15.45;42.93
66594;DHT22;53450;42.584;23.366;2022-10-16T14:32:03;15.38;43.17
66594;DHT22;53450;42.584;23.366;2022-10-16T14:34:34;15.42;43.12
66594;DHT22;53450;42.584;23.366;2022-10-16T14:37:07;15.45;43.97
66594;DHT22;53450;42.584;23.366;2022-10-16T14:40:04;15.35;43.83
66594;DHT22;53450;42.584;23.366;2022-10-16T14:42:30;15.11;45.53
66594;DHT22;53450;42.584;23.366;2022-10-16T14:44:56;14.71;47.07
66594;DHT22;53450;42.584;23.366;2022-10-16T14:47:24;14.15;48.42
66594;DHT22;53450;42.584;23.366;2022-10-16T14:49:55;13.94;49.71
66594;DHT22;53450;42.584;23.366;2022-10-16T14:52:22;13.85;49.62
66594;DHT22;53450;42.584;23.366;2022-10-16T14:54:49;13.59;51.02
66594;DHT22;53450;42.584;23.366;2022-10-16T14:57:27;13.33;51.40
66594;DHT22;53450;42.584;23.366;2022-10-16T14:59:56;13.36;51.29
66594;DHT22;53450;42.584;23.366;2022-10-16T15:02:29;13.13;51.42
66594;DHT22;53450;42.584;23.366;2022-10-16T15:04:55;13.14;51.71
66594;DHT22;53450;42.584;23.366;2022-10-16T15:07:22;13.10;51.76
66594;DHT22;53450;42.584;23.366;2022-10-16T15:09:48;13.07;52.36
66594;DHT22;53450;42.584;23.366;2022-10-16T15:12:13;12.96;53.33
66594;DHT22;53450;42.584;23.366;2022-10-16T15:14:39;12.76;54.02
66594;DHT22;53450;42.584;23.366;2022-10-16T15:17:04;12.69;54.37
66594;DHT22;53450;42.584;23.366;2022-10-16T15:19:30;12.53;54.96
66594;DHT22;53450;42.584;23.366;2022-10-16T15:21:56;12.45;54.86
66594;DHT22;53450;42.584;23.366;2022-10-16T15:24:22;12.40;55.12
66594;DHT22;53450;42.584;23.366;2022-10-16T15:26:47;12.32;55.03
66594;DHT22;53450;42.584;23.366;2022-10-16T15:29:14;12.24;55.93
66594;DHT22;53450;42.584;23.366;2022-10-16T15:31:40;12.16;56.05
66594;DHT22;53450;42.584;23.366;2022-10-16T15:34:10;11.91;56.85
66594;DHT22;53450;42.584;23.366;2022-10-16T15:36:38;11.86;56.30
66594;DHT22;53450;42.584;23.366;2022-10-16T15:39:12;11.79;56.86
66594;DHT22;53450;42.584;23.366;2022-10-16T15:41:39;11.65;57.52
66594;DHT22;53450;42.584;23.366;2022-10-16T15:44:05;11.52;58.34
66594;DHT22;53450;42.584;23.366;2022-10-16T15:46:30;11.42;58.50
66594;DHT22;53450;42.584;23.366;2022-10-16T15:49:02;11.39;58.43
66594;DHT22;53450;42.584;23.366;2022-10-16T15:51:28;11.25;58.98
66594;DHT22;53450;42.584;23.366;2022-10-16T15:53:58;11.21;59.05
66594;DHT22;53450;42.584;23.366;2022-10-16T15:56:26;11.18;59.21
66594;DHT22;53450;42.584;23.366;2022-10-16T15:58:54;11.11;59.27
66594;DHT22;53450;42.584;23.366;2022-10-16T16:01:20;11.07;59.75
66594;DHT22;53450;42.584;23.366;2022-10-16T16:03:46;10.95;60.18
66594;DHT22;53450;42.584;23.366;2022-10-16T16:06:13;10.87;60.51
66594;DHT22;53450;42.584;23.366;2022-10-16T16:08:39;10.80;60.52
66594;DHT22;53450;42.584;23.366;2022-10-16T16:11:10;10.80;60.94
66594;DHT22;53450;42.584;23.366;2022-10-16T16:13:36;10.71;60.66
66594;DHT22;53450;42.584;23.366;2022-10-16T16:16:11;10.60;60.82
66594;DHT22;53450;42.584;23.366;2022-10-16T16:18:37;10.59;60.73
66594;DHT22;53450;42.584;23.366;2022-10-16T16:21:04;10.50;61.16
66594;DHT22;53450;42.584;23.366;2022-10-16T16:23:30;10.47;61.30
66594;DHT22;53450;42.584;23.366;2022-10-16T16:26:08;10.50;60.79
66594;DHT22;53450;42.584;23.366;2022-10-16T16:28:35;10.49;60.72
66594;DHT22;53450;42.584;23.366;2022-10-16T16:31:01;10.46;60.89
66594;DHT22;53450;42.584;23.366;2022-10-16T16:33:27;10.36;61.23
66594;DHT22;53450;42.584;23.366;2022-10-16T16:36:01;10.32;61.37
66594;DHT22;53450;42.584;23.366;2022-10-16T16:38:28;10.23;61.64
66594;DHT22;53450;42.584;23.366;2022-10-16T16:40:54;10.19;61.64
66594;DHT22;53450;42.584;23.366;2022-10-16T16:43:24;10.08;62.13
66594;DHT22;53450;42.584;23.366;2022-10-16T16:45:51;9.99;62.76
66594;DHT22;53450;42.584;23.366;2022-10-16T16:48:25;9.98;62.62
66594;DHT22;53450;42.584;23.366;2022-10-16T16:50:50;9.91;62.67
66594;DHT22;53450;42.584;23.366;2022-10-16T16:53:16;9.89;62.77
66594;DHT22;53450;42.584;23.366;2022-10-16T16:55:41;9.85;63.23
66594;DHT22;53450;42.584;23.366;2022-10-16T16:58:07;9.73;63.08
66594;DHT22;53450;42.584;23.366;2022-10-16T17:00:32;9.68;63.49
66594;DHT22;53450;42.584;23.366;2022-10-16T17:02:58;9.65;64.02
66594;DHT22;53450;42.584;23.366;2022-10-16T17:05:24;9.71;63.21
66594;DHT22;53450;42.584;23.366;2022-10-16T17:07:52;9.59;63.38
66594;DHT22;53450;42.584;23.366;2022-10-16T17:10:18;9.38;63.64
66594;DHT22;53450;42.584;23.366;2022-10-16T17:13:09;9.40;63.88
66594;DHT22;53450;42.584;23.366;2022-10-16T17:15:34;9.40;64.16
66594;DHT22;53450;42.584;23.366;2022-10-16T17:18:00;9.19;64.03
66594;DHT22;53450;42.584;23.366;2022-10-16T17:20:26;9.30;64.08
66594;DHT22;53450;42.584;23.366;2022-10-16T17:22:51;9.40;63.71
66594;DHT22;53450;42.584;23.366;2022-10-16T17:25:17;9.37;62.92
66594;DHT22;53450;42.584;23.366;2022-10-16T17:27:43;9.28;63.74
66594;DHT22;53450;42.584;23.366;2022-10-16T17:30:08;9.31;62.71
66594;DHT22;53450;42.584;23.366;2022-10-16T17:32:34;9.24;64.15
66594;DHT22;53450;42.584;23.366;2022-10-16T17:35:00;9.07;65.49
66594;DHT22;53450;42.584;23.366;2022-10-16T17:37:25;8.93;65.44
66594;DHT22;53450;42.584;23.366;2022-10-16T17:39:51;8.85;65.58
66594;DHT22;53450;42.584;23.366;2022-10-16T17:42:17;8.76;65.02
66594;DHT22;53450;42.584;23.366;2022-10-16T17:44:42;8.75;65.25
66594;DHT22;53450;42.584;23.366;2022-10-16T17:47:08;8.82;65.81